Time;durP1;ratioP1;P1;durP2;ratioP2;P2;SDS_P1;SDS_P2;PMS_P1;PMS_P2;Temp;Humidity;BMP_temperature;BMP_pressure;BME280_temperature;BME280_humidity;BME280_pressure;Samples;Min_cycle;Max_cycle;Signal;HPM_P1;HPM_P2
2022/01/02 00:01:50;;;;;;;;;;;;;;;18.67;52.64;101654.31;5016804;28;19925;-44
2022/01/02 00:04:16;;;;;;;;;;;;;;;18.66;52.16;101665.25;4984697;28;19937;-43
2022/01/02 00:06:46;;;;;;;;;;;;;;;18.66;52.51;101651.78;4985369;28;20158;-43
2022/01/02 00:09:11;;;;;;;;;;;;;;;18.67;52.41;101645.41;4999997;28;19945;-44
2022/01/02 00:11:37;;;;;;;;;;;;;;;18.66;52.43;101631.09;5000062;28;19914;-42
2022/01/02 00:14:06;;;;;;;;;;;;;;;18.66;52.38;101643.72;4984824;28;20005;-43
2022/01/02 00:16:33;;;;;;;;;;;;;;;18.64;52.19;101635.75;4985355;28;19906;-44
2022/01/02 00:19:08;;;;;;;;;;;;;;;18.64;52.33;101633.06;4984273;28;19930;-43
2022/01/02 00:21:40;;;;;;;;;;;;;;;18.64;52.57;101630.38;4985186;28;19921;-44
2022/01/02 00:24:07;;;;;;;;;;;;;;;18.64;52.46;101627.66;4985025;28;19925;-44
2022/01/02 00:26:39;;;;;;;;;;;;;;;18.63;52.20;101622.44;5015741;28;19918;-43
2022/01/02 00:29:05;;;;;;;;;;;;;;;18.62;52.31;101621.59;4984654;28;19926;-45
2022/01/02 00:31:31;;;;;;;;;;;;;;;18.61;52.21;101630.69;4985042;28;19910;-45
2022/01/02 00:33:56;;;;;;;;;;;;;;;18.61;52.40;101641.47;4984115;28;20295;-46
2022/01/02 00:36:22;;;;;;;;;;;;;;;18.60;52.30;101638.91;4984810;28;19925;-48
2022/01/02 00:38:47;;;;;;;;;;;;;;;18.60;52.31;101637.03;4983683;28;19914;-44
2022/01/02 00:41:12;;;;;;;;;;;;;;;18.59;52.35;101632.66;4984480;28;19997;-46
2022/01/02 00:43:42;;;;;;;;;;;;;;;18.59;52.51;101642.59;5015549;28;19914;-44
2022/01/02 00:46:08;;;;;;;;;;;;;;;18.58;52.32;101635.50;5015798;28;19922;-43
2022/01/02 00:48:33;;;;;;;;;;;;;;;18.57;52.33;101639.22;4983861;28;19914;-45
2022/01/02 00:51:01;;;;;;;;;;;;;;;18.57;52.45;101617.66;4984404;28;19914;-44
2022/01/02 00:53:26;;;;;;;;;;;;;;;18.56;52.40;101629.41;5015383;28;19918;-44
2022/01/02 00:55:57;;;;;;;;;;;;;;;18.56;52.24;101626.72;5015570;28;19929;-43
2022/01/02 00:58:25;;;;;;;;;;;;;;;18.55;52.34;101607.03;5015539;28;20000;-44
2022/01/02 01:00:51;;;;;;;;;;;;;;;18.55;52.38;101622.34;4982886;28;19941;-44
2022/01/02 01:03:21;;;;;;;;;;;;;;;18.55;52.61;101625.03;4984167;28;19914;-43
2022/01/02 01:05:46;;;;;;;;;;;;;;;18.54;52.44;101617.97;4982649;28;20397;-43
2022/01/02 01:08:11;;;;;;;;;;;;;;;18.52;52.41;101604.66;4983115;28;19918;-43
2022/01/02 01:10:38;;;;;;;;;;;;;;;18.52;52.40;101601.09;4984538;28;19985;-43
2022/01/02 01:13:05;;;;;;;;;;;;;;;18.51;52.36;101592.16;4984549;28;20307;-44
2022/01/02 01:15:30;;;;;;;;;;;;;;;18.51;52.46;101588.63;4982715;28;19914;-43
2022/01/02 01:17:57;;;;;;;;;;;;;;;18.51;52.30;101596.72;4983778;28;19930;-44
2022/01/02 01:20:23;;;;;;;;;;;;;;;18.50;52.27;101595.88;4983671;28;19920;-45
2022/01/02 01:22:49;;;;;;;;;;;;;;;18.49;52.49;101605.78;4983981;28;19976;-43
2022/01/02 01:25:17;;;;;;;;;;;;;;;18.49;52.30;101603.09;4984032;28;19918;-43
2022/01/02 01:27:46;;;;;;;;;;;;;;;18.48;52.30;101587.09;4983927;28;19946;-46
2022/01/02 01:30:12;;;;;;;;;;;;;;;18.47;52.28;101586.22;5015056;28;19918;-43
2022/01/02 01:32:37;;;;;;;;;;;;;;;18.47;52.57;101580.84;4983873;28;19953;-42
2022/01/02 01:35:03;;;;;;;;;;;;;;;18.46;52.29;101583.69;4983469;28;19938;-44
2022/01/02 01:37:28;;;;;;;;;;;;;;;18.44;52.38;101570.38;4984053;28;19924;-43
2022/01/02 01:39:53;;;;;;;;;;;;;;;18.45;52.39;101576.63;4983941;28;19976;-44
2022/01/02 01:42:29;;;;;;;;;;;;;;;18.44;52.40;101572.25;4983928;28;19914;-44
2022/01/02 01:47:28;;;;;;;;;;;;;;;18.42;52.30;101580.44;4990679;28;19950;-43
2022/01/02 01:49:53;;;;;;;;;;;;;;;18.41;52.43;101570.69;4966836;28;19918;-44
2022/01/02 01:52:18;;;;;;;;;;;;;;;18.40;52.34;101579.75;4970404;28;19922;-42
2022/01/02 01:54:43;;;;;;;;;;;;;;;18.40;52.17;101563.59;4987904;28;19973;-42
2022/01/02 01:57:09;;;;;;;;;;;;;;;18.40;52.18;101566.31;4987593;28;19914;-43
2022/01/02 01:59:34;;;;;;;;;;;;;;;18.39;52.48;101561.91;4987393;28;20008;-43
2022/01/02 02:01:59;;;;;;;;;;;;;;;18.39;52.56;101559.22;4987665;28;19914;-43
2022/01/02 02:04:24;;;;;;;;;;;;;;;18.37;52.48;101554.97;4986901;28;19915;-43
2022/01/02 02:06:52;;;;;;;;;;;;;;;18.36;52.31;101543.38;4987632;28;19922;-44
2022/01/02 02:09:18;;;;;;;;;;;;;;;18.37;52.22;101554.97;4986112;28;19925;-42
2022/01/02 02:11:43;;;;;;;;;;;;;;;18.36;52.33;101529.06;4987661;28;19941;-44
2022/01/02 02:14:08;;;;;;;;;;;;;;;18.35;52.51;101527.34;5018472;28;19988;-42
2022/01/02 02:16:34;;;;;;;;;;;;;;;18.34;52.43;101518.41;4987513;28;19921;-42
2022/01/02 02:18:59;;;;;;;;;;;;;;;18.34;52.46;101502.28;4986380;28;19922;-42
2022/01/02 02:21:32;;;;;;;;;;;;;;;18.33;52.35;101497.88;4987342;28;19920;-42
2022/01/02 02:23:57;;;;;;;;;;;;;;;18.33;52.35;101480.91;4985209;28;19958;-44
2022/01/02 02:26:22;;;;;;;;;;;;;;;18.32;52.35;101484.59;4987285;28;20303;-45
2022/01/02 02:28:47;;;;;;;;;;;;;;;18.31;52.26;101494.50;4986875;28;19930;-43
2022/01/02 02:31:12;;;;;;;;;;;;;;;18.30;52.40;101482.03;4986967;28;19921;-44
2022/01/02 02:33:37;;;;;;;;;;;;;;;18.31;52.33;101469.41;4986409;28;19914;-45
2022/01/02 02:36:03;;;;;;;;;;;;;;;18.30;52.33;101476.66;4987033;28;19918;-46
2022/01/02 02:38:28;;;;;;;;;;;;;;;18.30;52.60;101468.56;4986838;28;19926;-43
2022/01/02 02:40:54;;;;;;;;;;;;;;;18.30;52.44;101467.72;4986697;28;19918;-45
2022/01/02 02:43:31;;;;;;;;;;;;;;;18.28;52.50;101446.34;4986591;28;20065;-43
2022/01/02 02:51:31;;;;;;;;;;;;;;;18.28;52.30;101438.28;4986856;28;19921;-48
2022/01/02 02:53:56;;;;;;;;;;;;;;;18.28;52.30;101442.81;4986858;28;19920;-44
2022/01/02 02:56:27;;;;;;;;;;;;;;;18.28;52.22;101442.81;4986523;28;19922;-47
2022/01/02 02:58:55;;;;;;;;;;;;;;;18.27;52.55;101441.13;4991659;28;19918;-47
2022/01/02 03:01:22;;;;;;;;;;;;;;;18.27;52.29;101446.50;5016291;28;19914;-45
2022/01/02 03:03:47;;;;;;;;;;;;;;;18.26;52.32;101445.63;4985987;28;19918;-44
2022/01/02 03:06:13;;;;;;;;;;;;;;;18.24;52.22;101429.66;5001395;28;20298;-44
2022/01/02 03:08:38;;;;;;;;;;;;;;;18.25;52.23;101414.34;4986124;28;19914;-41
2022/01/02 03:11:03;;;;;;;;;;;;;;;18.24;52.25;101412.66;4985969;28;19925;-44
2022/01/02 03:13:29;;;;;;;;;;;;;;;18.22;52.49;101407.44;4986101;28;19978;-44
2022/01/02 03:15:54;;;;;;;;;;;;;;;18.22;52.27;101407.44;4986073;28;19921;-45
2022/01/02 03:18:19;;;;;;;;;;;;;;;18.22;52.41;101404.75;4985885;28;19993;-47
2022/01/02 03:20:44;;;;;;;;;;;;;;;18.21;52.49;101403.03;4985762;28;19925;-44
2022/01/02 03:23:09;;;;;;;;;;;;;;;18.22;52.42;101398.50;4986037;28;19996;-42
2022/01/02 03:25:34;;;;;;;;;;;;;;;18.22;52.47;101393.09;4986037;28;19945;-43
2022/01/02 03:27:59;;;;;;;;;;;;;;;18.22;52.43;101393.09;4985999;28;19961;-46
2022/01/02 03:30:25;;;;;;;;;;;;;;;18.21;52.28;101394.97;4985686;28;19925;-45
2022/01/02 03:32:50;;;;;;;;;;;;;;;18.21;52.22;101384.19;4985951;28;20055;-45
2022/01/02 03:35:15;;;;;;;;;;;;;;;18.21;52.42;101370.72;4985413;28;19914;-43
2022/01/02 03:37:40;;;;;;;;;;;;;;;18.22;52.22;101363.50;4985965;28;19985;-43
2022/01/02 03:40:06;;;;;;;;;;;;;;;18.22;52.36;101360.81;4985636;28;19918;-44
2022/01/02 03:42:32;;;;;;;;;;;;;;;18.20;52.37;101347.53;4986050;28;19949;-42
2022/01/02 03:44:57;;;;;;;;;;;;;;;18.20;52.38;101360.13;4984173;28;19918;-48
2022/01/02 03:47:22;;;;;;;;;;;;;;;18.20;52.40;101365.53;4985816;28;19987;-42
2022/01/02 03:49:47;;;;;;;;;;;;;;;18.19;52.08;101377.28;4985028;28;19929;-43
2022/01/02 03:52:12;;;;;;;;;;;;;;;18.19;52.34;101380.81;4985699;28;19922;-46
2022/01/02 03:54:38;;;;;;;;;;;;;;;18.19;52.29;101383.50;4985405;28;19917;-43
2022/01/02 03:57:03;;;;;;;;;;;;;;;18.19;52.19;101379.97;4985503;28;20410;-44
2022/01/02 03:59:28;;;;;;;;;;;;;;;18.18;52.50;101381.84;4985259;28;19914;-44
2022/01/02 04:01:54;;;;;;;;;;;;;;;18.19;52.24;101361.13;4985455;28;19922;-44
2022/01/02 04:04:19;;;;;;;;;;;;;;;18.19;52.22;101366.53;4984627;28;19915;-45
2022/01/02 04:06:44;;;;;;;;;;;;;;;18.18;52.08;101354.91;4985452;28;20021;-44
2022/01/02 04:09:09;;;;;;;;;;;;;;;18.20;52.17;101357.44;4985026;28;19922;-42
2022/01/02 04:11:34;;;;;;;;;;;;;;;18.19;52.16;101350.38;4985362;28;20001;-43
2022/01/02 04:13:59;;;;;;;;;;;;;;;18.18;52.17;101357.59;4984878;28;19949;-46
2022/01/02 04:16:24;;;;;;;;;;;;;;;18.18;52.16;101356.72;4985009;28;19914;-44
2022/01/02 04:18:50;;;;;;;;;;;;;;;18.18;52.13;101362.13;4984193;28;19925;-43
2022/01/02 04:21:15;;;;;;;;;;;;;;;18.18;52.29;101348.66;4985107;28;19914;-46
2022/01/02 04:23:40;;;;;;;;;;;;;;;18.19;52.21;101345.00;4984973;28;19977;-44
2022/01/02 04:26:05;;;;;;;;;;;;;;;18.19;52.33;101345.84;4984824;28;20005;-43
2022/01/02 04:28:30;;;;;;;;;;;;;;;18.18;52.26;101328.00;4984723;28;19921;-43
2022/01/02 04:30:56;;;;;;;;;;;;;;;18.17;52.29;101320.91;4984794;28;19918;-43
2022/01/02 04:33:21;;;;;;;;;;;;;;;18.17;52.09;101320.91;4984874;28;19922;-45
2022/01/02 04:35:46;;;;;;;;;;;;;;;18.17;52.24;101322.75;4984266;28;19953;-46
2022/01/02 04:38:13;;;;;;;;;;;;;;;18.17;52.28;101320.06;4984837;28;19918;-45
2022/01/02 04:40:38;;;;;;;;;;;;;;;18.17;52.12;101320.91;4984673;28;19925;-45
2022/01/02 04:43:03;;;;;;;;;;;;;;;18.17;52.08;101325.44;4984544;28;19914;-48
2022/01/02 04:45:28;;;;;;;;;;;;;;;18.17;52.24;101320.06;4984377;28;20402;-46
2022/01/02 04:47:54;;;;;;;;;;;;;;;18.16;52.20;101329.97;4984695;28;19977;-49
2022/01/02 04:50:19;;;;;;;;;;;;;;;18.16;52.01;101324.59;4983979;28;19967;-46
2022/01/02 04:52:44;;;;;;;;;;;;;;;18.16;52.14;101329.97;4984509;28;19940;-48
2022/01/02 04:55:09;;;;;;;;;;;;;;;18.17;52.03;101322.75;4984191;28;19918;-42
2022/01/02 04:57:34;;;;;;;;;;;;;;;18.17;52.00;101317.38;4983147;28;19921;-43
2022/01/02 04:59:59;;;;;;;;;;;;;;;18.16;52.18;101321.91;4983841;28;19914;-44
2022/01/02 05:02:24;;;;;;;;;;;;;;;18.16;52.26;101313.84;4984450;28;20330;-45
2022/01/02 05:04:50;;;;;;;;;;;;;;;18.16;52.11;101303.06;4983726;28;20384;-46
2022/01/02 05:07:15;;;;;;;;;;;;;;;18.16;52.19;101307.63;4984307;28;19922;-43
2022/01/02 05:09:41;;;;;;;;;;;;;;;18.16;51.98;101310.31;4983944;28;19982;-43
2022/01/02 05:12:06;;;;;;;;;;;;;;;18.15;52.06;101311.31;4984400;28;19915;-42
2022/01/02 05:14:31;;;;;;;;;;;;;;;18.14;52.18;101315.84;4984046;28;19938;-43
2022/01/02 05:16:56;;;;;;;;;;;;;;;18.15;52.30;101330.16;4983897;28;19925;-42
2022/01/02 05:19:21;;;;;;;;;;;;;;;18.14;52.04;101315.84;4983611;28;20020;-45
2022/01/02 05:21:46;;;;;;;;;;;;;;;18.04;52.14;101301.59;4984159;28;20295;-42
2022/01/02 05:24:12;;;;;;;;;;;;;;;18.13;52.01;101310.59;4983686;28;19918;-44
2022/01/02 05:26:38;;;;;;;;;;;;;;;18.13;52.06;101298.00;4984002;28;19915;-44
2022/01/02 05:29:03;;;;;;;;;;;;;;;18.13;52.06;101291.75;4983764;28;19918;-42
2022/01/02 05:31:28;;;;;;;;;;;;;;;18.12;52.18;101290.94;4984047;28;19914;-43
2022/01/02 05:33:53;;;;;;;;;;;;;;;18.12;52.19;101277.47;4983321;28;19914;-43
2022/01/02 05:36:18;;;;;;;;;;;;;;;18.12;52.02;101279.31;4984107;28;19915;-45
2022/01/02 05:38:44;;;;;;;;;;;;;;;18.12;52.27;101280.16;4983705;28;19974;-42
2022/01/02 05:41:09;;;;;;;;;;;;;;;18.11;52.11;101275.78;4983840;28;20287;-43
2022/01/02 05:43:34;;;;;;;;;;;;;;;18.12;52.09;101268.56;4983640;28;19992;-44
2022/01/02 05:46:05;;;;;;;;;;;;;;;18.11;52.08;101258.81;4983734;28;19914;-44
2022/01/02 05:48:30;;;;;;;;;;;;;;;18.11;52.00;101248.88;4983283;28;19922;-41
2022/01/02 05:50:56;;;;;;;;;;;;;;;18.11;51.96;101234.59;4983810;28;20125;-44
2022/01/02 05:53:21;;;;;;;;;;;;;;;18.10;52.15;101232.91;4983946;28;19977;-43
2022/01/02 05:55:46;;;;;;;;;;;;;;;18.11;52.08;101234.59;4983633;28;19923;-43
2022/01/02 05:58:11;;;;;;;;;;;;;;;18.09;52.02;101223.94;4983658;28;19925;-44
2022/01/02 06:00:36;;;;;;;;;;;;;;;18.09;52.14;101228.50;4983319;28;20000;-45
2022/01/02 06:03:02;;;;;;;;;;;;;;;18.08;52.15;101219.56;4983953;28;19944;-43
2022/01/02 06:05:27;;;;;;;;;;;;;;;18.08;51.99;101210.66;5011954;28;20008;-43
2022/01/02 06:07:52;;;;;;;;;;;;;;;18.08;51.96;101210.66;4983367;28;19929;-42
2022/01/02 06:10:17;;;;;;;;;;;;;;;18.07;52.17;101200.91;4983143;28;19922;-44
2022/01/02 06:12:42;;;;;;;;;;;;;;;18.05;52.02;101186.75;4983100;28;20391;-45
2022/01/02 06:15:08;;;;;;;;;;;;;;;18.06;52.03;101183.09;4983061;28;19990;-43
2022/01/02 06:17:33;;;;;;;;;;;;;;;18.06;52.18;101183.94;4983535;28;19918;-44
2022/01/02 06:19:58;;;;;;;;;;;;;;;18.04;52.04;101180.53;4982346;28;19922;-44
2022/01/02 06:22:23;;;;;;;;;;;;;;;18.04;52.14;101175.16;4983285;28;19926;-47
2022/01/02 06:24:48;;;;;;;;;;;;;;;18.05;51.99;101162.53;4982864;28;20292;-43
2022/01/02 06:27:14;;;;;;;;;;;;;;;18.03;52.21;101151.94;4982928;28;19925;-42
2022/01/02 06:29:39;;;;;;;;;;;;;;;18.04;52.07;101144.72;4982668;28;19922;-44
2022/01/02 06:32:04;;;;;;;;;;;;;;;18.04;52.26;101147.41;4982695;28;19942;-43
2022/01/02 06:34:29;;;;;;;;;;;;;;;18.03;51.95;101129.56;4981265;28;19918;-42
2022/01/02 06:36:54;;;;;;;;;;;;;;;18.03;51.93;101121.50;4984003;28;20021;-44
2022/01/02 06:39:20;;;;;;;;;;;;;;;18.03;52.13;101119.66;4985726;28;19928;-44
2022/01/02 06:41:45;;;;;;;;;;;;;;;18.02;52.13;101112.59;4985544;28;19918;-44
2022/01/02 06:44:10;;;;;;;;;;;;;;;18.02;51.94;101107.22;4985335;28;19918;-44
2022/01/02 06:46:36;;;;;;;;;;;;;;;18.01;52.15;101092.09;4985848;28;20069;-42
2022/01/02 06:49:01;;;;;;;;;;;;;;;18.01;51.91;101099.28;4984979;28;19929;-42
2022/01/02 06:51:26;;;;;;;;;;;;;;;18.01;51.99;101089.41;4985557;28;19929;-42
2022/01/02 06:53:51;;;;;;;;;;;;;;;18.01;52.17;101061.63;4985828;28;19918;-43
2022/01/02 06:56:16;;;;;;;;;;;;;;;18.02;52.10;101068.72;4985427;28;19918;-44
2022/01/02 06:58:42;;;;;;;;;;;;;;;18.02;52.15;101060.63;4985090;28;19927;-42
2022/01/02 07:01:07;;;;;;;;;;;;;;;18.02;52.23;101052.56;4985665;28;19926;-43
2022/01/02 07:03:33;;;;;;;;;;;;;;;18.00;52.17;101044.63;4984925;28;19922;-45
2022/01/02 07:05:59;;;;;;;;;;;;;;;18.01;52.23;101035.59;4985878;28;19925;-47
2022/01/02 07:08:24;;;;;;;;;;;;;;;18.01;52.27;101034.72;4985240;28;19918;-44
2022/01/02 07:10:49;;;;;;;;;;;;;;;18.00;52.11;101033.88;4985435;28;19979;-45
2022/01/02 07:13:14;;;;;;;;;;;;;;;18.01;52.22;101024.81;4985314;28;19918;-43
2022/01/02 07:15:39;;;;;;;;;;;;;;;18.01;52.14;101021.25;4985293;28;20380;-43
2022/01/02 07:18:05;;;;;;;;;;;;;;;18.02;52.19;101028.34;4985205;28;19922;-42
2022/01/02 07:20:30;;;;;;;;;;;;;;;18.02;52.17;101018.44;4984588;28;19957;-45
2022/01/02 07:22:55;;;;;;;;;;;;;;;18.02;52.17;101018.44;4983655;28;19922;-43
2022/01/02 07:25:20;;;;;;;;;;;;;;;18.02;52.09;101006.84;4984817;28;19929;-43
2022/01/02 07:27:45;;;;;;;;;;;;;;;18.02;52.29;101010.34;4985059;28;19918;-45
2022/01/02 07:30:10;;;;;;;;;;;;;;;18.01;52.12;101011.38;4984506;28;19929;-47
2022/01/02 07:32:37;;;;;;;;;;;;;;;18.01;52.22;101011.38;4989101;28;19930;-45
2022/01/02 07:35:04;;;;;;;;;;;;;;;18.02;52.42;101012.22;4989434;28;19922;-43
2022/01/02 07:37:29;;;;;;;;;;;;;;;18.01;52.39;101008.69;4990548;28;19977;-45
2022/01/02 07:39:54;;;;;;;;;;;;;;;18.03;52.30;100992.38;4987642;28;19918;-43
2022/01/02 07:42:19;;;;;;;;;;;;;;;18.04;52.46;100986.81;4988986;28;19925;-44
2022/01/02 07:44:44;;;;;;;;;;;;;;;18.07;52.51;100988.34;4989085;28;19918;-43
2022/01/02 07:47:09;;;;;;;;;;;;;;;18.08;52.52;100981.97;4988962;28;19945;-42
2022/01/02 07:49:34;;;;;;;;;;;;;;;18.08;52.32;100988.19;4988803;28;19922;-45
2022/01/02 07:52:00;;;;;;;;;;;;;;;18.09;52.45;100995.25;4991988;28;19918;-44
2022/01/02 07:54:25;;;;;;;;;;;;;;;18.10;52.23;100996.13;4988202;28;19918;-45
2022/01/02 07:56:50;;;;;;;;;;;;;;;18.10;52.47;100999.66;4983981;28;19930;-43
2022/01/02 07:59:15;;;;;;;;;;;;;;;18.11;52.44;101003.16;4986189;28;19921;-43
2022/01/02 08:01:40;;;;;;;;;;;;;;;18.12;52.47;101003.00;4986829;28;19990;-44
2022/01/02 08:04:05;;;;;;;;;;;;;;;18.11;52.29;100998.63;5018975;28;19922;-44
2022/01/02 08:06:31;;;;;;;;;;;;;;;18.11;52.46;101001.31;4987627;28;19914;-44
2022/01/02 08:08:56;;;;;;;;;;;;;;;18.11;52.44;101009.38;4989855;28;19993;-42
2022/01/02 08:11:21;;;;;;;;;;;;;;;18.13;52.45;101036.13;4990184;28;19914;-43
2022/01/02 08:13:47;;;;;;;;;;;;;;;18.11;52.49;101036.31;4987196;28;20407;-43
2022/01/02 08:16:12;;;;;;;;;;;;;;;18.13;52.34;101036.13;4987156;28;20008;-42
2022/01/02 08:18:37;;;;;;;;;;;;;;;18.13;52.47;101025.38;4991585;28;19922;-42
2022/01/02 08:21:03;;;;;;;;;;;;;;;18.11;52.46;101020.16;4987268;28;19914;-43
2022/01/02 08:23:28;;;;;;;;;;;;;;;18.12;52.33;101026.38;4989592;28;20572;-41
2022/01/02 08:25:53;;;;;;;;;;;;;;;18.11;52.26;101024.69;4989766;28;19988;-42
2022/01/02 08:28:19;;;;;;;;;;;;;;;18.12;52.40;101031.75;4986923;28;19948;-42
2022/01/02 08:30:44;;;;;;;;;;;;;;;18.12;52.54;100997.63;4986747;28;19942;-41
2022/01/02 08:33:10;;;;;;;;;;;;;;;18.12;52.52;100988.72;4986935;28;19914;-43
2022/01/02 08:35:35;;;;;;;;;;;;;;;18.12;52.47;100972.56;4985094;28;19985;-44
2022/01/02 08:38:00;;;;;;;;;;;;;;;18.12;52.48;100983.31;4982956;28;19921;-43
2022/01/02 08:40:26;;;;;;;;;;;;;;;18.13;52.31;100972.38;4986948;28;20627;-41
2022/01/02 08:42:51;;;;;;;;;;;;;;;18.13;52.31;100983.16;4989224;28;19985;-43
2022/01/02 08:45:16;;;;;;;;;;;;;;;18.12;52.27;100994.94;4986567;28;19918;-42
2022/01/02 08:47:41;;;;;;;;;;;;;;;18.13;52.58;100993.06;4981268;28;19949;-42
2022/01/02 08:50:07;;;;;;;;;;;;;;;18.13;52.54;100995.75;4991249;28;19922;-42
2022/01/02 08:52:32;;;;;;;;;;;;;;;18.13;52.60;100993.06;4984253;28;19918;-44
2022/01/02 08:54:57;;;;;;;;;;;;;;;18.13;52.45;100990.38;4986193;28;19918;-43
2022/01/02 08:57:22;;;;;;;;;;;;;;;18.12;52.36;100981.47;4987721;28;19965;-46
2022/01/02 08:59:48;;;;;;;;;;;;;;;18.13;52.33;100976.94;4986148;28;19922;-44
2022/01/02 09:02:13;;;;;;;;;;;;;;;18.13;52.40;100987.69;4986643;28;19989;-42
2022/01/02 09:04:38;;;;;;;;;;;;;;;18.13;52.60;100985.00;4983239;28;19914;-43
2022/01/02 09:07:03;;;;;;;;;;;;;;;18.12;52.41;100991.41;4983974;28;19958;-46
2022/01/02 09:09:28;;;;;;;;;;;;;;;18.12;52.45;100977.94;4983571;28;19918;-43
2022/01/02 09:11:53;;;;;;;;;;;;;;;18.11;52.44;100977.09;4983933;28;19929;-43
2022/01/02 09:14:19;;;;;;;;;;;;;;;18.12;52.42;100977.94;4983523;28;19953;-43
2022/01/02 09:16:47;;;;;;;;;;;;;;;18.11;52.55;100979.78;4983456;28;19918;-47
2022/01/02 09:19:12;;;;;;;;;;;;;;;18.10;52.34;100974.59;4982907;28;20060;-41
2022/01/02 09:21:37;;;;;;;;;;;;;;;18.11;52.57;100962.81;4983696;28;20431;-43
2022/01/02 09:24:03;;;;;;;;;;;;;;;18.11;52.50;100966.34;4983713;28;19918;-43
2022/01/02 09:26:28;;;;;;;;;;;;;;;18.14;52.33;100962.50;4983429;28;19948;-43
2022/01/02 09:28:53;;;;;;;;;;;;;;;18.15;52.24;100964.19;4985509;28;19941;-44
2022/01/02 09:31:18;;;;;;;;;;;;;;;18.16;52.20;100963.16;4988436;28;19926;-42
2022/01/02 09:33:43;;;;;;;;;;;;;;;18.18;52.36;100969.22;4985116;28;19918;-46
2022/01/02 09:36:09;;;;;;;;;;;;;;;18.18;52.32;100963.81;4987731;28;20433;-45
2022/01/02 09:38:34;;;;;;;;;;;;;;;18.20;52.07;100965.38;4991286;28;19918;-42
2022/01/02 09:40:59;;;;;;;;;;;;;;;18.21;52.28;100977.81;4982780;28;19934;-42
2022/01/02 09:43:26;;;;;;;;;;;;;;;18.21;52.02;100967.03;4982933;28;19941;-44
2022/01/02 09:45:51;;;;;;;;;;;;;;;18.23;51.95;100972.28;4981623;28;19918;-42
2022/01/02 09:48:17;;;;;;;;;;;;;;;18.23;52.18;100962.34;4981144;28;19918;-43
2022/01/02 09:50:42;;;;;;;;;;;;;;;18.25;52.13;100964.88;4976147;28;20025;-41
2022/01/02 09:53:08;;;;;;;;;;;;;;;18.28;51.98;100964.56;4980207;28;19968;-45
2022/01/02 09:55:33;;;;;;;;;;;;;;;18.30;51.92;100961.69;4980807;28;19961;-42
2022/01/02 09:57:59;;;;;;;;;;;;;;;18.31;52.00;100949.91;4980152;28;19929;-42
2022/01/02 10:00:25;;;;;;;;;;;;;;;18.31;51.87;100950.78;4980486;28;19933;-42
2022/01/02 10:02:56;;;;;;;;;;;;;;;18.33;51.99;100948.75;4980818;28;19918;-42
2022/01/02 10:05:24;;;;;;;;;;;;;;;18.34;51.82;100942.34;4980490;28;19925;-42
2022/01/02 10:07:49;;;;;;;;;;;;;;;18.35;51.98;100946.75;4980219;28;19989;-43
2022/01/02 10:10:15;;;;;;;;;;;;;;;18.38;51.73;100949.09;4980918;28;19973;-44
2022/01/02 10:12:40;;;;;;;;;;;;;;;18.42;51.94;100947.75;4985014;28;19953;-42
2022/01/02 10:15:09;;;;;;;;;;;;;;;18.47;51.92;100952.66;4983217;28;19926;-44
2022/01/02 10:17:50;;;;;;;;;;;;;;;18.51;51.90;100940.53;4966441;28;19926;-42
2022/01/02 10:20:16;;;;;;;;;;;;;;;18.54;51.76;100945.59;4981901;28;20386;-42
2022/01/02 10:23:00;;;;;;;;;;;;;;;18.60;51.71;100949.47;4985113;28;19922;-46
2022/01/02 10:25:39;;;;;;;;;;;;;;;18.63;51.60;100947.31;4982650;28;21277;-46
2022/01/02 10:28:25;;;;;;;;;;;;;;;18.67;51.67;100945.13;4983582;28;19926;-41
2022/01/02 10:30:51;;;;;;;;;;;;;;;18.71;51.43;100944.66;4984135;28;19929;-43
2022/01/02 10:33:16;;;;;;;;;;;;;;;18.75;51.46;100949.72;4984048;28;19973;-41
2022/01/02 10:35:41;;;;;;;;;;;;;;;18.79;51.44;100953.75;4983871;28;19941;-42
2022/01/02 10:38:10;;;;;;;;;;;;;;;18.81;51.31;100941.78;4982884;28;19929;-42
2022/01/02 10:40:38;;;;;;;;;;;;;;;18.84;51.43;100929.84;4982707;28;20930;-41
2022/01/02 10:43:05;;;;;;;;;;;;;;;18.87;51.33;100924.97;4984341;28;19968;-42
2022/01/02 10:45:33;;;;;;;;;;;;;;;18.91;51.04;100944.34;4984003;28;19917;-42
2022/01/02 10:47:58;;;;;;;;;;;;;;;18.93;51.15;100934.22;4981448;28;19925;-45
2022/01/02 10:50:23;;;;;;;;;;;;;;;18.93;51.15;100929.69;4983102;28;19923;-44
2022/01/02 10:52:49;;;;;;;;;;;;;;;18.93;50.88;100945.00;4983323;28;19958;-44
2022/01/02 10:55:15;;;;;;;;;;;;;;;18.93;51.29;100937.75;4983993;28;19918;-45
2022/01/02 10:57:43;;;;;;;;;;;;;;;18.93;50.96;100935.06;4983114;28;19982;-47
2022/01/02 11:00:08;;;;;;;;;;;;;;;18.92;51.18;100925.31;4981302;28;19990;-43
2022/01/02 11:02:33;;;;;;;;;;;;;;;18.92;51.08;100921.78;4984245;28;20414;-46
2022/01/02 11:04:59;;;;;;;;;;;;;;;18.92;51.22;100937.94;4983207;28;19977;-43
2022/01/02 11:07:25;;;;;;;;;;;;;;;18.88;51.14;100934.75;4982135;28;20626;-44
2022/01/02 11:09:55;;;;;;;;;;;;;;;18.85;51.27;100924.28;4983485;28;19929;-45
2022/01/02 11:12:20;;;;;;;;;;;;;;;18.82;51.24;100932.72;4982986;28;19922;-42
2022/01/02 11:14:46;;;;;;;;;;;;;;;18.80;51.32;100932.03;4983209;28;19948;-45
2022/01/02 11:17:12;;;;;;;;;;;;;;;18.78;51.44;100933.22;5015100;28;19926;-42
2022/01/02 11:19:37;;;;;;;;;;;;;;;18.76;51.22;100922.59;4982060;28;19930;-48
2022/01/02 11:22:03;;;;;;;;;;;;;;;18.75;51.43;100928.16;4982392;28;19922;-43
2022/01/02 11:24:28;;;;;;;;;;;;;;;18.72;51.49;100932.88;4982738;28;19961;-46
2022/01/02 11:27:02;;;;;;;;;;;;;;;18.72;51.42;100929.34;4970272;28;20401;-44
2022/01/02 11:29:28;;;;;;;;;;;;;;;18.70;51.50;100934.91;5008763;28;19929;-44
2022/01/02 11:31:53;;;;;;;;;;;;;;;18.71;51.61;100931.19;4982409;28;19922;-44
2022/01/02 11:34:29;;;;;;;;;;;;;;;18.70;51.43;100925.97;4984613;28;19918;-50
2022/01/02 11:37:12;;;;;;;;;;;;;;;18.70;51.67;100928.69;4985022;28;19937;-45
2022/01/02 11:39:56;;;;;;;;;;;;;;;18.70;51.48;100928.69;4984882;28;19918;-47
2022/01/02 11:42:38;;;;;;;;;;;;;;;18.70;51.71;100934.06;4985284;28;19945;-48
2022/01/02 11:45:04;;;;;;;;;;;;;;;18.70;51.56;100942.13;4984946;28;19921;-44
2022/01/02 11:47:39;;;;;;;;;;;;;;;18.69;51.57;100935.91;5016011;28;19918;-46
2022/01/02 11:50:04;;;;;;;;;;;;;;;18.70;51.61;100934.91;4983614;28;19922;-44
2022/01/02 11:52:32;;;;;;;;;;;;;;;18.70;51.58;100925.97;4979448;28;19929;-42
2022/01/02 11:54:58;;;;;;;;;;;;;;;18.71;51.82;100933.88;4980541;28;19997;-39
2022/01/02 11:57:23;;;;;;;;;;;;;;;18.71;51.64;100925.81;4982484;28;19926;-41
2022/01/02 11:59:48;;;;;;;;;;;;;;;18.75;51.73;100930.88;4980901;28;19976;-43
2022/01/02 12:02:13;;;;;;;;;;;;;;;18.77;51.80;100924.28;4982382;28;19925;-43
2022/01/02 12:04:58;;;;;;;;;;;;;;;18.79;51.97;100926.81;4982098;28;20439;-39
2022/01/02 12:07:52;;;;;;;;;;;;;;;18.80;51.89;100921.25;4980370;28;19973;-44
2022/01/02 12:10:17;;;;;;;;;;;;;;;18.81;51.91;100924.78;4980559;28;19929;-39
2022/01/02 12:13:02;;;;;;;;;;;;;;;18.83;51.88;100925.50;4979858;28;19926;-41
2022/01/02 12:15:30;;;;;;;;;;;;;;;18.84;52.07;100932.56;4980909;28;19922;-43
2022/01/02 12:18:26;;;;;;;;;;;;;;;18.85;52.02;100916.22;4981522;28;19921;-44
2022/01/02 12:20:52;;;;;;;;;;;;;;;18.87;52.24;100919.59;4979824;28;19918;-41
2022/01/02 12:23:33;;;;;;;;;;;;;;;18.88;52.13;100918.56;4980828;28;19958;-44
2022/01/02 12:26:01;;;;;;;;;;;;;;;18.89;52.10;100920.25;4980584;28;19925;-47
2022/01/02 12:28:27;;;;;;;;;;;;;;;18.91;52.34;100917.41;4982123;28;19961;-42
2022/01/02 12:30:53;;;;;;;;;;;;;;;18.93;52.40;100912.69;4981017;28;19926;-46
2022/01/02 12:33:23;;;;;;;;;;;;;;;18.95;52.30;100914.22;4981999;28;19927;-48
2022/01/02 12:35:48;;;;;;;;;;;;;;;18.98;52.26;100921.09;4980687;28;19930;-44
2022/01/02 12:38:13;;;;;;;;;;;;;;;19.00;51.98;100918.25;4981039;28;19929;-44
2022/01/02 12:40:39;;;;;;;;;;;;;;;19.01;52.22;100920.75;4980886;28;19976;-42